Terminal Aerodrome Forecast
Issued by NWS

Home | Current Version | Previous Version | Text Only | Print | Product List | Glossary Off
Versions: 1 2 3 4 5 6 7 8 9 10 11 12 13 14 15 16

000
FTUS43 KTOP 201000 AAB
TAFMHK
TAF AMD
KMHK 201043Z 2011/2106 00000KT 3SM BR SKC
      TEMPO 2011/2013 1SM BR SCT002
     FM201400 04006KT P6SM SKC=

USA.gov is the U.S. government's official web portal to all federal, state and local government web resources and services.